createdAt,value
2023-04-15T00:00:01.487Z,0.64
2023-04-15T00:01:01.458Z,0.63
2023-04-15T00:02:01.582Z,0.63
2023-04-15T00:03:01.650Z,0.64
2023-04-15T00:04:01.574Z,0.64
2023-04-15T00:05:01.451Z,0.64
2023-04-15T00:06:01.437Z,0.63
2023-04-15T00:07:01.434Z,0.63
2023-04-15T00:08:01.594Z,0.62
2023-04-15T00:09:02.621Z,0.64
2023-04-15T00:10:01.452Z,0.65
2023-04-15T00:11:01.522Z,0.64
2023-04-15T00:12:01.532Z,0.64
2023-04-15T00:13:01.535Z,0.64
2023-04-15T00:14:01.548Z,0.63
2023-04-15T00:15:01.580Z,0.64
2023-04-15T00:16:01.659Z,0.64
2023-04-15T00:17:01.654Z,0.63
2023-04-15T00:18:01.678Z,0.65
2023-04-15T00:19:01.834Z,0.64
2023-04-15T00:20:01.686Z,0.64
2023-04-15T00:21:01.707Z,0.65
2023-04-15T00:22:01.721Z,0.63
2023-04-15T00:23:01.766Z,0.65
2023-04-15T00:24:01.818Z,0.63
2023-04-15T00:25:01.812Z,0.64
2023-04-15T00:26:01.840Z,0.64
2023-04-15T00:27:01.831Z,0.65
2023-04-15T00:28:01.814Z,0.62
2023-04-15T00:29:02.056Z,0.64
2023-04-15T00:30:01.983Z,0.64
2023-04-15T00:31:02.022Z,0.65
2023-04-15T00:32:01.944Z,0.64
2023-04-15T00:33:02.022Z,0.63
2023-04-15T00:34:02.082Z,0.64
2023-04-15T00:35:02.044Z,0.64
2023-04-15T00:36:02.081Z,0.65
2023-04-15T00:37:02.149Z,0.63
2023-04-15T00:38:02.157Z,0.64
2023-04-15T00:39:02.360Z,0.63
2023-04-15T00:40:02.260Z,0.64
2023-04-15T00:41:02.244Z,0.64
2023-04-15T00:42:02.259Z,0.64
2023-04-15T00:43:02.268Z,0.64
2023-04-15T00:44:02.349Z,0.64
2023-04-15T00:45:02.355Z,0.64
2023-04-15T00:46:02.468Z,0.65
2023-04-15T00:47:02.399Z,0.64
2023-04-15T00:48:02.534Z,0.64
2023-04-15T00:49:02.648Z,0.63
2023-04-15T00:50:02.519Z,0.65
2023-04-15T00:51:02.515Z,0.65
2023-04-15T00:52:02.488Z,0.65
2023-04-15T00:53:02.606Z,0.65
2023-04-15T00:54:02.582Z,0.65
2023-04-15T00:55:02.585Z,0.65
2023-04-15T00:56:02.621Z,0.63
2023-04-15T00:57:02.628Z,0.64
2023-04-15T00:58:02.679Z,0.66
2023-04-15T00:59:02.753Z,0.64
2023-04-15T01:00:02.762Z,0.63
2023-04-15T01:01:02.783Z,0.64
2023-04-15T01:02:02.891Z,0.65
2023-04-15T01:03:02.881Z,0.65
2023-04-15T01:04:02.901Z,0.65
2023-04-15T01:05:02.844Z,0.66
2023-04-15T01:06:04.019Z,0.63
2023-04-15T01:07:03.471Z,0.64
2023-04-15T01:08:02.914Z,0.64
2023-04-15T01:09:03.295Z,0.65
2023-04-15T01:10:02.976Z,0.64
2023-04-15T01:11:02.926Z,0.65
2023-04-15T01:12:02.988Z,0.64
2023-04-15T01:13:03.020Z,0.65
2023-04-15T01:14:03.027Z,0.65
2023-04-15T01:15:03.061Z,0.66
2023-04-15T01:16:03.206Z,0.65
2023-04-15T01:17:03.100Z,0.65
2023-04-15T01:18:03.247Z,0.65
2023-04-15T01:19:03.398Z,0.65
2023-04-15T01:20:03.239Z,0.64
2023-04-15T01:21:03.233Z,0.65
2023-04-15T01:22:03.288Z,0.64
2023-04-15T01:23:03.336Z,0.65
2023-04-15T01:24:03.339Z,0.65
2023-04-15T01:25:03.419Z,0.65
2023-04-15T01:26:03.365Z,0.65
2023-04-15T01:27:03.461Z,0.65
2023-04-15T01:28:03.456Z,0.63
2023-04-15T01:29:03.460Z,0.66
2023-04-15T01:30:03.524Z,0.64
2023-04-15T01:31:03.523Z,0.65
2023-04-15T01:32:03.594Z,0.64
2023-04-15T01:33:03.621Z,0.64
2023-04-15T01:34:03.602Z,0.64
2023-04-15T01:35:03.640Z,0.65
2023-04-15T01:36:03.648Z,0.65
2023-04-15T01:37:03.725Z,0.65
2023-04-15T01:38:03.706Z,0.65
2023-04-15T01:39:03.740Z,0.65
2023-04-15T01:40:03.798Z,0.65
2023-04-15T01:41:03.784Z,0.64
2023-04-15T01:42:03.854Z,0.65
2023-04-15T01:43:03.892Z,0.64
2023-04-15T01:44:03.915Z,0.64
2023-04-15T01:45:03.909Z,0.64
2023-04-15T01:46:03.992Z,0.65
2023-04-15T01:47:04.171Z,0.65
2023-04-15T01:48:04.049Z,0.65
2023-04-15T01:49:04.017Z,0.64
2023-04-15T01:50:04.056Z,0.65
2023-04-15T01:51:04.490Z,0.66
2023-04-15T01:52:04.146Z,0.65
2023-04-15T01:53:04.141Z,0.66
2023-04-15T01:54:04.326Z,0.65
2023-04-15T01:55:04.203Z,0.65
2023-04-15T01:56:04.210Z,0.64
2023-04-15T01:57:04.272Z,0.64
2023-04-15T01:58:04.288Z,0.65
2023-04-15T01:59:04.427Z,0.65
2023-04-15T02:00:04.387Z,0.65
2023-04-15T02:01:04.442Z,0.64
2023-04-15T02:02:04.633Z,0.65
2023-04-15T02:03:04.588Z,0.65
2023-04-15T02:04:04.582Z,0.65
2023-04-15T02:05:04.523Z,0.65
2023-04-15T02:06:04.581Z,0.65
2023-04-15T02:07:04.586Z,0.66
2023-04-15T02:08:05.007Z,0.64
2023-04-15T02:09:04.665Z,0.65
2023-04-15T02:10:04.676Z,0.65
2023-04-15T02:11:04.718Z,0.65
2023-04-15T02:12:04.808Z,0.66
2023-04-15T02:13:04.787Z,0.66
2023-04-15T02:14:04.798Z,0.65
2023-04-15T02:15:04.846Z,0.65
2023-04-15T02:16:04.903Z,0.66
2023-04-15T02:17:04.913Z,0.65
2023-04-15T02:18:04.931Z,0.66
2023-04-15T02:19:04.927Z,0.65
2023-04-15T02:20:04.983Z,0.65
2023-04-15T02:21:05.046Z,0.66
2023-04-15T02:22:05.067Z,0.66
2023-04-15T02:23:05.107Z,0.65
2023-04-15T02:24:05.116Z,0.66
2023-04-15T02:25:05.182Z,0.66
2023-04-15T02:26:05.180Z,0.66
2023-04-15T02:27:05.201Z,0.66
2023-04-15T02:28:05.255Z,0.65
2023-04-15T02:29:05.258Z,0.67
2023-04-15T02:30:05.323Z,0.65
2023-04-15T02:31:05.323Z,0.66
2023-04-15T02:32:05.372Z,0.65
2023-04-15T02:33:05.359Z,0.65
2023-04-15T02:34:05.498Z,0.65
2023-04-15T02:35:05.510Z,0.66
2023-04-15T02:36:05.509Z,0.65
2023-04-15T02:37:05.510Z,0.66
2023-04-15T02:38:05.544Z,0.65
2023-04-15T02:39:05.590Z,0.65
2023-04-15T02:40:05.640Z,0.65
2023-04-15T02:41:05.602Z,0.65
2023-04-15T02:42:05.657Z,0.65
2023-04-15T02:43:05.661Z,0.66
2023-04-15T02:44:05.726Z,0.66
2023-04-15T02:45:05.775Z,0.64
2023-04-15T02:46:05.851Z,0.66
2023-04-15T02:47:05.854Z,0.65
2023-04-15T02:48:05.855Z,0.66
2023-04-15T02:49:05.961Z,0.66
2023-04-15T02:50:05.903Z,0.66
2023-04-15T02:51:05.980Z,0.66
2023-04-15T02:52:05.986Z,0.66
2023-04-15T02:53:06.029Z,0.66
2023-04-15T02:54:06.104Z,0.66
2023-04-15T02:55:06.062Z,0.65
2023-04-15T02:56:06.133Z,0.67
2023-04-15T02:57:06.127Z,0.64
2023-04-15T02:58:06.165Z,0.66
2023-04-15T02:59:06.173Z,0.66
2023-04-15T03:00:06.237Z,0.65
2023-04-15T03:01:06.316Z,0.66
2023-04-15T03:02:06.308Z,0.66
2023-04-15T03:03:06.531Z,0.67
2023-04-15T03:04:06.377Z,0.66
2023-04-15T03:05:06.538Z,0.67
2023-04-15T03:06:06.324Z,0.65
2023-04-15T03:07:06.394Z,0.65
2023-04-15T03:08:06.392Z,0.65
2023-04-15T03:09:06.445Z,0.67
2023-04-15T03:10:06.506Z,0.66
2023-04-15T03:11:06.530Z,0.66
2023-04-15T03:12:06.532Z,0.66
2023-04-15T03:13:06.575Z,0.67
2023-04-15T03:14:06.589Z,0.65
2023-04-15T03:15:06.661Z,0.66
2023-04-15T03:16:06.723Z,0.66
2023-04-15T03:17:06.717Z,0.66
2023-04-15T03:18:06.672Z,0.66
2023-04-15T03:19:07.082Z,0.65
2023-04-15T03:20:06.833Z,0.67
2023-04-15T03:21:06.748Z,0.66
2023-04-15T03:22:06.790Z,0.65
2023-04-15T03:23:06.861Z,0.66
2023-04-15T03:24:06.878Z,0.66
2023-04-15T03:25:06.909Z,0.66
2023-04-15T03:26:06.886Z,0.67
2023-04-15T03:27:06.985Z,0.66
2023-04-15T03:28:06.998Z,0.67
2023-04-15T03:29:06.997Z,0.66
2023-04-15T03:30:07.054Z,0.66
2023-04-15T03:31:07.111Z,0.68
2023-04-15T03:32:07.074Z,0.66
2023-04-15T03:33:07.134Z,0.66
2023-04-15T03:34:07.189Z,0.67
2023-04-15T03:35:07.200Z,0.67
2023-04-15T03:36:07.251Z,0.66
2023-04-15T03:37:07.277Z,0.66
2023-04-15T03:38:07.271Z,0.67
2023-04-15T03:39:07.317Z,0.66
2023-04-15T03:40:07.334Z,0.66
2023-04-15T03:41:07.387Z,0.66
2023-04-15T03:42:07.373Z,0.66
2023-04-15T03:43:07.399Z,0.66
2023-04-15T03:44:07.415Z,0.65
2023-04-15T03:45:07.466Z,0.67
2023-04-15T03:46:07.493Z,0.66
2023-04-15T03:47:07.506Z,0.65
2023-04-15T03:48:17.247Z,0.67
2023-04-15T03:49:08.575Z,0.67
2023-04-15T03:50:07.556Z,0.67
2023-04-15T03:51:07.559Z,0.66
2023-04-15T03:52:07.522Z,0.67
2023-04-15T03:53:07.472Z,0.66
2023-04-15T03:54:07.534Z,0.67
2023-04-15T03:55:07.524Z,0.65
2023-04-15T03:56:08.054Z,0.64
2023-04-15T03:57:07.515Z,0.65
2023-04-15T03:58:07.447Z,0.64
2023-04-15T03:59:07.456Z,0.63
2023-04-15T04:00:07.461Z,0.63
2023-04-15T04:01:07.468Z,0.61
2023-04-15T04:02:07.666Z,0.61
2023-04-15T04:03:07.624Z,0.60
2023-04-15T04:04:07.587Z,0.60
2023-04-15T04:05:07.509Z,0.60
2023-04-15T04:06:07.503Z,0.59
2023-04-15T04:07:07.522Z,0.58
2023-04-15T04:08:07.547Z,0.60
2023-04-15T04:09:07.593Z,0.59
2023-04-15T04:10:07.584Z,0.59
2023-04-15T04:11:07.673Z,0.58
2023-04-15T04:12:07.712Z,0.58
2023-04-15T04:13:07.712Z,0.57
2023-04-15T04:14:07.708Z,0.57
2023-04-15T04:15:07.726Z,0.57
2023-04-15T04:16:07.889Z,0.57
2023-04-15T04:17:07.896Z,0.56
2023-04-15T04:18:07.825Z,0.56
2023-04-15T04:19:07.886Z,0.55
2023-04-15T04:20:07.908Z,0.55
2023-04-15T04:21:07.941Z,0.55
2023-04-15T04:22:08.051Z,0.56
2023-04-15T04:23:07.984Z,0.56
2023-04-15T04:24:08.038Z,0.55
2023-04-15T04:25:08.068Z,0.55
2023-04-15T04:26:08.098Z,0.55
2023-04-15T04:27:08.118Z,0.55
2023-04-15T04:28:08.200Z,0.55
2023-04-15T04:29:08.218Z,0.55
2023-04-15T04:30:08.227Z,0.53
2023-04-15T04:31:08.297Z,0.54
2023-04-15T04:32:08.312Z,0.54
2023-04-15T04:33:08.411Z,0.53
2023-04-15T04:34:08.350Z,0.54
2023-04-15T04:35:08.353Z,0.54
2023-04-15T04:36:08.421Z,0.52
2023-04-15T04:37:08.432Z,0.53
2023-04-15T04:38:08.480Z,0.52
2023-04-15T04:39:08.483Z,0.51
2023-04-15T04:40:08.551Z,0.51
2023-04-15T04:41:08.557Z,0.52
2023-04-15T04:42:08.611Z,0.51
2023-04-15T04:43:08.674Z,0.51
2023-04-15T04:44:08.670Z,0.52
2023-04-15T04:45:08.713Z,0.52
2023-04-15T04:46:08.782Z,0.51
2023-04-15T04:47:08.731Z,0.51
2023-04-15T04:48:08.742Z,0.51
2023-04-15T04:49:08.823Z,0.51
2023-04-15T04:50:08.824Z,0.51
2023-04-15T04:51:08.881Z,0.51
2023-04-15T04:52:08.863Z,0.50
2023-04-15T04:53:08.874Z,0.52
2023-04-15T04:54:08.954Z,0.51
2023-04-15T04:55:08.949Z,0.51
2023-04-15T04:56:08.986Z,0.52
2023-04-15T04:57:09.012Z,0.50
2023-04-15T04:58:09.027Z,0.51
2023-04-15T04:59:09.091Z,0.51
2023-04-15T05:00:09.111Z,0.52
2023-04-15T05:01:09.152Z,0.50
2023-04-15T05:02:09.237Z,0.52
2023-04-15T05:03:09.308Z,0.51
2023-04-15T05:04:09.477Z,0.51
2023-04-15T05:05:09.225Z,0.51
2023-04-15T05:06:09.269Z,0.51
2023-04-15T05:07:09.292Z,0.51
2023-04-15T05:08:09.349Z,0.51
2023-04-15T05:09:09.350Z,0.51
2023-04-15T05:10:09.396Z,0.50
2023-04-15T05:11:09.418Z,0.50
2023-04-15T05:12:09.594Z,0.50
2023-04-15T05:13:09.431Z,0.51
2023-04-15T05:14:09.501Z,0.51
2023-04-15T05:15:09.496Z,0.51
2023-04-15T05:16:09.640Z,0.51
2023-04-15T05:17:09.674Z,0.51
2023-04-15T05:18:09.627Z,0.50
2023-04-15T05:19:09.639Z,0.50
2023-04-15T05:20:09.666Z,0.50
2023-04-15T05:21:09.672Z,0.50
2023-04-15T05:22:09.702Z,0.52
2023-04-15T05:23:09.745Z,0.50
2023-04-15T05:24:09.769Z,0.50
2023-04-15T05:25:09.772Z,0.52
2023-04-15T05:26:09.785Z,0.51
2023-04-15T05:27:09.815Z,0.52
2023-04-15T05:28:09.912Z,0.51
2023-04-15T05:29:09.908Z,0.51
2023-04-15T05:30:11.566Z,0.51
2023-04-15T05:31:09.998Z,0.50
2023-04-15T05:32:09.937Z,0.50
2023-04-15T05:33:09.936Z,0.50
2023-04-15T05:34:09.948Z,0.50
2023-04-15T05:35:09.871Z,0.51
2023-04-15T05:36:10.072Z,0.51
2023-04-15T05:37:09.906Z,0.52
2023-04-15T05:38:09.898Z,0.51
2023-04-15T05:39:09.876Z,0.50
2023-04-15T05:40:09.882Z,0.51
2023-04-15T05:41:09.872Z,0.51
2023-04-15T05:42:10.101Z,0.50
2023-04-15T05:43:09.900Z,0.51
2023-04-15T05:44:09.866Z,0.50
2023-04-15T05:45:09.852Z,0.51
2023-04-15T05:46:09.834Z,0.51
2023-04-15T05:47:09.826Z,0.52
2023-04-15T05:48:09.890Z,0.50
2023-04-15T05:49:09.886Z,0.51
2023-04-15T05:50:09.838Z,0.50
2023-04-15T05:51:09.805Z,0.52
2023-04-15T05:52:09.827Z,0.51
2023-04-15T05:53:09.778Z,0.51
2023-04-15T05:54:09.765Z,0.51
2023-04-15T05:55:09.798Z,0.52
2023-04-15T05:56:09.737Z,0.51
2023-04-15T05:57:09.794Z,0.52
2023-04-15T05:58:09.726Z,0.52
2023-04-15T05:59:09.807Z,0.52
2023-04-15T06:00:09.738Z,0.51
2023-04-15T06:01:09.719Z,0.52
2023-04-15T06:02:09.765Z,0.53
2023-04-15T06:03:09.836Z,0.52
2023-04-15T06:04:09.855Z,0.53
2023-04-15T06:05:09.918Z,0.53
2023-04-15T06:06:09.698Z,0.53
2023-04-15T06:07:09.692Z,0.52
2023-04-15T06:08:09.669Z,0.53
2023-04-15T06:09:09.680Z,0.53
2023-04-15T06:10:09.676Z,0.54
2023-04-15T06:11:09.632Z,0.52
2023-04-15T06:12:10.099Z,0.53
2023-04-15T06:13:09.738Z,0.52
2023-04-15T06:14:09.625Z,0.53
2023-04-15T06:15:09.642Z,0.53
2023-04-15T06:16:09.630Z,0.53
2023-04-15T06:17:09.646Z,0.53
2023-04-15T06:18:09.590Z,0.54
2023-04-15T06:19:09.847Z,0.53
2023-04-15T06:20:09.580Z,0.54
2023-04-15T06:21:09.592Z,0.55
2023-04-15T06:22:09.589Z,0.54
2023-04-15T06:23:09.566Z,0.55
2023-04-15T06:24:09.565Z,0.53
2023-04-15T06:25:09.530Z,0.53
2023-04-15T06:26:09.588Z,0.55
2023-04-15T06:27:09.507Z,0.54
2023-04-15T06:28:09.596Z,0.54
2023-04-15T06:29:09.507Z,0.54
2023-04-15T06:30:09.519Z,0.53
2023-04-15T06:31:09.563Z,0.53
2023-04-15T06:32:09.511Z,0.54
2023-04-15T06:33:09.522Z,0.54
2023-04-15T06:34:09.466Z,0.53
2023-04-15T06:35:09.499Z,0.52
2023-04-15T06:36:09.482Z,0.54
2023-04-15T06:37:09.483Z,0.52
2023-04-15T06:38:09.499Z,0.53
2023-04-15T06:39:09.568Z,0.52
2023-04-15T06:40:09.549Z,0.54
2023-04-15T06:41:09.592Z,0.53
2023-04-15T06:42:09.648Z,0.51
2023-04-15T06:43:09.636Z,0.53
2023-04-15T06:44:09.683Z,0.52
2023-04-15T06:45:09.710Z,0.52
2023-04-15T06:46:09.776Z,0.51
2023-04-15T06:47:09.761Z,0.52
2023-04-15T06:48:09.765Z,0.51
2023-04-15T06:49:09.849Z,0.52
2023-04-15T06:50:09.853Z,0.52
2023-04-15T06:51:09.861Z,0.52
2023-04-15T06:52:09.965Z,0.52
2023-04-15T06:53:10.694Z,0.52
2023-04-15T06:54:09.967Z,0.52
2023-04-15T06:55:10.011Z,0.52
2023-04-15T06:56:09.976Z,0.52
2023-04-15T06:57:10.009Z,0.52
2023-04-15T06:58:10.048Z,0.53
2023-04-15T06:59:10.034Z,0.52
2023-04-15T07:00:10.182Z,0.52
2023-04-15T07:01:10.147Z,0.52
2023-04-15T07:02:10.187Z,0.52
2023-04-15T07:03:10.228Z,0.52
2023-04-15T07:04:10.240Z,0.51
2023-04-15T07:05:10.277Z,0.51
2023-04-15T07:06:10.251Z,0.51
2023-04-15T07:07:10.280Z,0.52
2023-04-15T07:08:10.284Z,0.52
2023-04-15T07:09:10.341Z,0.52
2023-04-15T07:10:10.345Z,0.51
2023-04-15T07:11:10.378Z,0.51
2023-04-15T07:12:10.392Z,0.51
2023-04-15T07:13:10.416Z,0.52
2023-04-15T07:14:10.419Z,0.51
2023-04-15T07:15:10.438Z,0.51
2023-04-15T07:16:10.486Z,0.51
2023-04-15T07:17:10.538Z,0.51
2023-04-15T07:18:10.546Z,0.50
2023-04-15T07:19:10.509Z,0.50
2023-04-15T07:20:10.632Z,0.51
2023-04-15T07:21:10.633Z,0.51
2023-04-15T07:22:10.627Z,0.51
2023-04-15T07:23:10.689Z,0.50
2023-04-15T07:24:10.740Z,0.51
2023-04-15T07:25:10.737Z,0.51
2023-04-15T07:26:10.766Z,0.50
2023-04-15T07:27:10.822Z,0.51
2023-04-15T07:28:10.838Z,0.51
2023-04-15T07:29:10.831Z,0.50
2023-04-15T07:30:10.859Z,0.51
2023-04-15T07:31:10.963Z,0.50
2023-04-15T07:32:10.913Z,0.51
2023-04-15T07:33:10.962Z,0.51
2023-04-15T07:34:10.972Z,0.51
2023-04-15T07:35:10.968Z,0.51
2023-04-15T07:36:11.030Z,0.51
2023-04-15T07:37:11.045Z,0.51
2023-04-15T07:38:11.038Z,0.51
2023-04-15T07:39:11.114Z,0.51
2023-04-15T07:40:11.110Z,0.52
2023-04-15T07:41:11.169Z,0.51
2023-04-15T07:42:11.153Z,0.50
2023-04-15T07:43:11.256Z,0.50
2023-04-15T07:44:11.249Z,0.51
2023-04-15T07:45:11.262Z,0.51
2023-04-15T07:46:11.316Z,0.51
2023-04-15T07:47:11.307Z,0.50
2023-04-15T07:48:11.335Z,0.51
2023-04-15T07:49:11.432Z,0.51
2023-04-15T07:50:11.480Z,0.51
2023-04-15T07:51:11.406Z,0.51
2023-04-15T07:52:11.423Z,0.51
2023-04-15T07:53:11.464Z,0.50
2023-04-15T07:54:11.439Z,0.51
2023-04-15T07:55:11.541Z,0.51
2023-04-15T07:56:11.532Z,0.50
2023-04-15T07:57:11.542Z,0.51
2023-04-15T07:58:11.598Z,0.51
2023-04-15T07:59:11.595Z,0.51
2023-04-15T08:00:11.626Z,0.51
2023-04-15T08:01:11.680Z,0.51
2023-04-15T08:02:11.859Z,0.52
2023-04-15T08:03:11.867Z,0.51
2023-04-15T08:04:11.992Z,0.51
2023-04-15T08:05:11.754Z,0.51
2023-04-15T08:06:11.756Z,0.51
2023-04-15T08:07:11.815Z,0.51
2023-04-15T08:08:11.826Z,0.52
2023-04-15T08:09:11.909Z,0.52
2023-04-15T08:10:11.880Z,0.52
2023-04-15T08:11:11.890Z,0.52
2023-04-15T08:12:11.961Z,0.53
2023-04-15T08:13:11.954Z,0.51
2023-04-15T08:14:12.005Z,0.52
2023-04-15T08:15:12.010Z,0.53
2023-04-15T08:16:12.104Z,0.54
2023-04-15T08:17:12.066Z,0.50
2023-04-15T08:18:12.114Z,0.51
2023-04-15T08:19:12.176Z,0.50
2023-04-15T08:20:12.210Z,0.51
2023-04-15T08:21:12.223Z,0.51
2023-04-15T08:22:17.853Z,0.52
2023-04-15T08:23:13.256Z,0.52
2023-04-15T08:24:12.227Z,0.51
2023-04-15T08:25:12.267Z,0.52
2023-04-15T08:26:12.201Z,0.51
2023-04-15T08:27:12.213Z,0.50
2023-04-15T08:28:12.202Z,0.50
2023-04-15T08:29:12.211Z,0.50
2023-04-15T08:30:12.171Z,0.50
2023-04-15T08:31:12.189Z,0.51
2023-04-15T08:32:12.147Z,0.52
2023-04-15T08:33:12.133Z,0.52
2023-04-15T08:34:12.145Z,0.53
2023-04-15T08:35:12.149Z,0.52
2023-04-15T08:36:12.125Z,0.51
2023-04-15T08:37:12.864Z,0.52
2023-04-15T08:38:12.124Z,0.52
2023-04-15T08:39:12.150Z,0.51
2023-04-15T08:40:12.156Z,0.51
2023-04-15T08:41:12.151Z,0.51
2023-04-15T08:42:12.202Z,0.51
2023-04-15T08:43:12.209Z,0.51
2023-04-15T08:44:12.292Z,0.52
2023-04-15T08:45:12.287Z,0.52
2023-04-15T08:46:12.345Z,0.53
2023-04-15T08:47:12.502Z,0.52
2023-04-15T08:48:12.394Z,0.52
2023-04-15T08:49:12.403Z,0.52
2023-04-15T08:50:12.413Z,0.53
2023-04-15T08:51:12.419Z,0.52
2023-04-15T08:52:12.464Z,0.52
2023-04-15T08:53:12.481Z,0.53
2023-04-15T08:54:12.490Z,0.53
2023-04-15T08:55:12.555Z,0.52
2023-04-15T08:56:12.569Z,0.52
2023-04-15T08:57:12.673Z,0.52
2023-04-15T08:58:12.676Z,0.51
2023-04-15T08:59:12.692Z,0.51
2023-04-15T09:00:12.652Z,0.51
2023-04-15T09:01:12.805Z,0.52
2023-04-15T09:02:12.734Z,0.51
2023-04-15T09:03:12.801Z,0.51
2023-04-15T09:04:12.945Z,0.52
2023-04-15T09:05:12.869Z,0.52
2023-04-15T09:06:12.846Z,0.52
2023-04-15T09:07:12.884Z,0.52
2023-04-15T09:08:12.935Z,0.53
2023-04-15T09:09:12.921Z,0.50
2023-04-15T09:10:12.934Z,0.51
2023-04-15T09:11:12.970Z,0.52
2023-04-15T09:12:13.025Z,0.51
2023-04-15T09:13:13.020Z,0.52
2023-04-15T09:14:13.081Z,0.52
2023-04-15T09:15:13.156Z,0.52
2023-04-15T09:16:13.146Z,0.52
2023-04-15T09:17:13.121Z,0.52
2023-04-15T09:18:13.160Z,0.53
2023-04-15T09:19:13.265Z,0.54
2023-04-15T09:20:13.242Z,0.53
2023-04-15T09:21:13.259Z,0.52
2023-04-15T09:22:13.301Z,0.53
2023-04-15T09:23:13.300Z,0.52
2023-04-15T09:24:13.320Z,0.52
2023-04-15T09:25:13.371Z,0.53
2023-04-15T09:26:13.444Z,0.52
2023-04-15T09:27:13.424Z,0.52
2023-04-15T09:28:13.500Z,0.53
2023-04-15T09:29:13.470Z,0.53
2023-04-15T09:30:13.518Z,0.53
2023-04-15T09:31:13.598Z,0.52
2023-04-15T09:32:13.603Z,0.53
2023-04-15T09:33:13.623Z,0.52
2023-04-15T09:34:13.683Z,0.52
2023-04-15T09:35:13.686Z,0.52
2023-04-15T09:36:13.701Z,0.53
2023-04-15T09:37:24.510Z,0.53
2023-04-15T09:38:14.741Z,0.53
2023-04-15T09:39:13.735Z,0.53
2023-04-15T09:40:13.730Z,0.53
2023-04-15T09:41:13.725Z,0.53
2023-04-15T09:42:13.690Z,0.55
2023-04-15T09:43:13.686Z,0.54
2023-04-15T09:44:13.707Z,0.53
2023-04-15T09:45:13.659Z,0.53
2023-04-15T09:46:13.769Z,0.55
2023-04-15T09:47:13.655Z,0.53
2023-04-15T09:48:13.702Z,0.52
2023-04-15T09:49:13.689Z,0.52
2023-04-15T09:50:13.663Z,0.52
2023-04-15T09:51:13.655Z,0.52
2023-04-15T09:52:13.656Z,0.51
2023-04-15T09:53:13.711Z,0.52
2023-04-15T09:54:13.786Z,0.51
2023-04-15T09:55:13.799Z,0.51
2023-04-15T09:56:13.820Z,0.50
2023-04-15T09:57:13.833Z,0.50
2023-04-15T09:58:13.863Z,0.51
2023-04-15T09:59:13.903Z,0.51
2023-04-15T10:00:13.975Z,0.51
2023-04-15T10:01:13.975Z,0.51
2023-04-15T10:02:14.057Z,0.52
2023-04-15T10:03:14.241Z,0.54
2023-04-15T10:04:14.134Z,0.55
2023-04-15T10:05:14.101Z,0.54
2023-04-15T10:06:14.110Z,0.54
2023-04-15T10:07:14.123Z,0.54
2023-04-15T10:08:14.105Z,0.56
2023-04-15T10:09:14.160Z,0.56
2023-04-15T10:10:29.171Z,0.56
2023-04-15T10:11:14.200Z,0.56
2023-04-15T10:12:14.174Z,0.57
2023-04-15T10:13:14.166Z,0.58
2023-04-15T10:14:14.167Z,0.59
2023-04-15T10:15:14.162Z,0.62
2023-04-15T10:16:14.201Z,0.59
2023-04-15T10:17:14.143Z,0.58
2023-04-15T10:18:14.152Z,0.59
2023-04-15T10:19:14.120Z,0.56
2023-04-15T10:20:14.162Z,0.55
2023-04-15T10:21:14.096Z,0.56
2023-04-15T10:22:14.130Z,0.51
2023-04-15T10:23:14.113Z,0.51
2023-04-15T10:24:14.090Z,0.50
2023-04-15T10:25:14.120Z,0.51
2023-04-15T10:26:14.064Z,0.51
2023-04-15T10:27:14.121Z,0.51
2023-04-15T10:28:14.062Z,0.52
2023-04-15T10:29:14.097Z,0.51
2023-04-15T10:30:14.203Z,0.50
2023-04-15T10:31:14.039Z,0.51
2023-04-15T10:32:14.035Z,0.52
2023-04-15T10:33:14.011Z,0.52
2023-04-15T10:34:14.044Z,0.51
2023-04-15T10:35:14.032Z,0.51
2023-04-15T10:36:14.018Z,0.51
2023-04-15T10:37:13.969Z,0.51
2023-04-15T10:38:13.977Z,0.51
2023-04-15T10:39:13.988Z,0.53
2023-04-15T10:40:14.044Z,0.52
2023-04-15T10:41:13.973Z,0.52
2023-04-15T10:42:13.996Z,0.52
2023-04-15T10:43:13.934Z,0.51
2023-04-15T10:44:13.995Z,0.51
2023-04-15T10:45:13.966Z,0.52
2023-04-15T10:46:13.965Z,0.52
2023-04-15T10:47:13.954Z,0.52
2023-04-15T10:48:13.949Z,0.52
2023-04-15T10:49:13.962Z,0.52
2023-04-15T10:50:13.918Z,0.53
2023-04-15T10:51:13.927Z,0.52
2023-04-15T10:52:13.899Z,0.52
2023-04-15T10:53:13.915Z,0.52
2023-04-15T10:54:14.221Z,0.51
2023-04-15T10:55:13.913Z,0.53
2023-04-15T10:56:13.879Z,0.54
2023-04-15T10:57:13.873Z,0.54
2023-04-15T10:58:13.867Z,0.54
2023-04-15T10:59:13.867Z,0.54
2023-04-15T11:00:13.919Z,0.53
2023-04-15T11:01:14.680Z,0.53
2023-04-15T11:02:13.939Z,0.51
2023-04-15T11:03:13.982Z,0.52
2023-04-15T11:04:13.929Z,0.52
2023-04-15T11:05:13.799Z,0.52
2023-04-15T11:06:13.813Z,0.52
2023-04-15T11:07:13.785Z,0.53
2023-04-15T11:08:13.870Z,0.54
2023-04-15T11:09:13.800Z,0.53
2023-04-15T11:10:14.241Z,0.54
2023-04-15T11:11:13.752Z,0.53
2023-04-15T11:12:13.737Z,0.52
2023-04-15T11:13:13.754Z,0.53
2023-04-15T11:14:13.768Z,0.53
2023-04-15T11:15:13.788Z,0.54
2023-04-15T11:16:13.800Z,0.54
2023-04-15T11:17:13.697Z,0.54
2023-04-15T11:18:13.750Z,0.55
2023-04-15T11:19:13.699Z,0.55
2023-04-15T11:20:13.702Z,0.53
2023-04-15T11:21:13.696Z,0.54
2023-04-15T11:22:13.679Z,0.53
2023-04-15T11:23:13.685Z,0.52
2023-04-15T11:24:13.690Z,0.52
2023-04-15T11:25:13.698Z,0.52
2023-04-15T11:26:13.701Z,0.52
2023-04-15T11:27:13.647Z,0.53
2023-04-15T11:28:13.693Z,0.53
2023-04-15T11:29:13.660Z,0.53
2023-04-15T11:30:13.668Z,0.54
2023-04-15T11:31:13.707Z,0.55
2023-04-15T11:32:13.848Z,0.53
2023-04-15T11:33:13.765Z,0.51
2023-04-15T11:34:13.788Z,0.50
2023-04-15T11:35:13.849Z,0.51
2023-04-15T11:36:14.219Z,0.50
2023-04-15T11:37:13.898Z,0.50
2023-04-15T11:38:14.113Z,0.50
2023-04-15T11:39:13.947Z,0.51
2023-04-15T11:40:13.959Z,0.51
2023-04-15T11:41:14.009Z,0.52
2023-04-15T11:42:14.014Z,0.52
2023-04-15T11:43:14.035Z,0.52
2023-04-15T11:44:14.042Z,0.52
2023-04-15T11:45:14.070Z,0.51
2023-04-15T11:46:14.193Z,0.51
2023-04-15T11:47:14.173Z,0.51
2023-04-15T11:48:14.167Z,0.51
2023-04-15T11:49:14.220Z,0.51
2023-04-15T11:50:14.210Z,0.51
2023-04-15T11:51:14.294Z,0.51
2023-04-15T11:52:14.312Z,0.53
2023-04-15T11:53:14.407Z,0.52
2023-04-15T11:54:14.337Z,0.53
2023-04-15T11:55:14.414Z,0.54
2023-04-15T11:56:14.364Z,0.53
2023-04-15T11:57:14.430Z,0.52
2023-04-15T11:58:16.120Z,0.51
2023-04-15T11:59:14.541Z,0.51
2023-04-15T12:00:14.561Z,0.51
2023-04-15T12:01:14.558Z,0.51
2023-04-15T12:02:14.786Z,0.51
2023-04-15T12:03:14.885Z,0.51
2023-04-15T12:04:14.811Z,0.53
2023-04-15T12:05:14.754Z,0.52
2023-04-15T12:06:14.787Z,0.52
2023-04-15T12:07:14.828Z,0.52
2023-04-15T12:08:14.877Z,0.51
2023-04-15T12:09:14.844Z,0.51
2023-04-15T12:10:14.875Z,0.50
2023-04-15T12:11:14.875Z,0.52
2023-04-15T12:12:14.946Z,0.51
2023-04-15T12:13:14.979Z,0.51
2023-04-15T12:14:15.076Z,0.52
2023-04-15T12:15:15.013Z,0.51
2023-04-15T12:16:15.130Z,0.53
2023-04-15T12:17:15.075Z,0.52
2023-04-15T12:18:15.114Z,0.52
2023-04-15T12:19:15.127Z,0.52
2023-04-15T12:20:15.198Z,0.51
2023-04-15T12:21:15.207Z,0.52
2023-04-15T12:22:15.235Z,0.51
2023-04-15T12:23:15.250Z,0.50
2023-04-15T12:24:15.322Z,0.51
2023-04-15T12:25:15.338Z,0.51
2023-04-15T12:26:15.368Z,0.51
2023-04-15T12:27:15.454Z,0.50
2023-04-15T12:28:15.464Z,0.51
2023-04-15T12:29:15.497Z,0.51
2023-04-15T12:30:15.536Z,0.53
2023-04-15T12:31:15.609Z,0.52
2023-04-15T12:32:15.662Z,0.52
2023-04-15T12:33:15.651Z,0.52
2023-04-15T12:34:15.703Z,0.52
2023-04-15T12:35:15.769Z,0.50
2023-04-15T12:36:15.779Z,0.50
2023-04-15T12:37:15.852Z,0.51
2023-04-15T12:38:15.882Z,0.53
2023-04-15T12:39:15.961Z,0.53
2023-04-15T12:40:15.923Z,0.51
2023-04-15T12:41:16.003Z,0.53
2023-04-15T12:42:15.998Z,0.50
2023-04-15T12:43:16.090Z,0.52
2023-04-15T12:44:16.127Z,0.52
2023-04-15T12:45:16.168Z,0.51
2023-04-15T12:46:16.229Z,0.52
2023-04-15T12:47:16.207Z,0.51
2023-04-15T12:48:16.240Z,0.51
2023-04-15T12:49:16.262Z,0.51
2023-04-15T12:50:16.291Z,0.52
2023-04-15T12:51:16.342Z,0.53
2023-04-15T12:52:16.359Z,0.53
2023-04-15T12:53:16.411Z,0.53
2023-04-15T12:54:16.458Z,0.53
2023-04-15T12:55:16.516Z,0.54
2023-04-15T12:56:16.519Z,0.52
2023-04-15T12:57:16.594Z,0.52
2023-04-15T12:58:16.637Z,0.51
2023-04-15T12:59:16.654Z,0.51
2023-04-15T13:00:16.646Z,0.51
2023-04-15T13:01:16.716Z,0.50
2023-04-15T13:02:16.823Z,0.51
2023-04-15T13:03:16.906Z,0.52
2023-04-15T13:04:16.898Z,0.52
2023-04-15T13:05:16.851Z,0.51
2023-04-15T13:06:16.859Z,0.53
2023-04-15T13:07:16.906Z,0.53
2023-04-15T13:08:16.907Z,0.52
2023-04-15T13:09:16.973Z,0.51
2023-04-15T13:10:16.998Z,0.50
2023-04-15T13:11:16.984Z,0.51
2023-04-15T13:12:17.036Z,0.53
2023-04-15T13:13:17.110Z,0.54
2023-04-15T13:14:17.110Z,0.56
2023-04-15T13:15:17.121Z,0.57
2023-04-15T13:16:17.181Z,0.57
2023-04-15T13:17:17.177Z,0.57
2023-04-15T13:18:17.239Z,0.57